createdAt,value
2018-01-17T00:00:43.859Z,984.81
2018-01-17T00:02:43.818Z,984.80
2018-01-17T00:03:43.818Z,984.80
2018-01-17T00:04:43.820Z,984.78
2018-01-17T00:05:43.827Z,984.73
2018-01-17T00:06:43.842Z,984.72
2018-01-17T00:07:43.834Z,984.65
2018-01-17T00:08:43.834Z,984.61
2018-01-17T00:09:43.844Z,984.58
2018-01-17T00:10:43.847Z,984.58
2018-01-17T00:11:43.855Z,984.59
2018-01-17T00:12:43.854Z,984.59
2018-01-17T00:13:43.858Z,984.60
2018-01-17T00:14:43.866Z,984.59
2018-01-17T00:15:43.872Z,984.57
2018-01-17T00:16:43.871Z,984.50
2018-01-17T00:17:43.872Z,984.51
2018-01-17T00:18:43.886Z,984.57
2018-01-17T00:19:44.478Z,984.47
2018-01-17T00:20:43.890Z,984.37
2018-01-17T00:21:43.894Z,984.45
2018-01-17T00:22:43.897Z,984.46
2018-01-17T00:23:43.894Z,984.45
2018-01-17T00:24:43.898Z,984.39
2018-01-17T00:27:09.391Z,984.40
2018-01-17T00:31:47.618Z,984.25
2018-01-17T00:32:47.620Z,984.28
2018-01-17T00:33:47.625Z,984.25
2018-01-17T00:34:47.627Z,984.29
2018-01-17T00:35:47.636Z,984.28
2018-01-17T00:36:47.648Z,984.25
2018-01-17T00:37:47.640Z,984.22
2018-01-17T00:38:47.821Z,984.22
2018-01-17T00:39:47.650Z,984.13
2018-01-17T00:40:47.650Z,984.13
2018-01-17T00:41:47.666Z,984.08
2018-01-17T00:42:47.665Z,984.02
2018-01-17T00:43:48.479Z,984.02
2018-01-17T00:44:47.671Z,983.99
2018-01-17T00:45:47.672Z,984.00
2018-01-17T00:46:47.680Z,983.97
2018-01-17T00:47:47.680Z,983.97
2018-01-17T00:48:47.690Z,984.02
2018-01-17T00:49:47.695Z,983.98
2018-01-17T00:50:47.695Z,984.05
2018-01-17T00:51:47.704Z,984.04
2018-01-17T00:52:47.707Z,984.02
2018-01-17T00:53:47.701Z,984.03
2018-01-17T00:54:47.712Z,983.99
2018-01-17T00:55:47.756Z,984.02
2018-01-17T00:56:47.712Z,984.04
2018-01-17T00:57:47.723Z,983.99
2018-01-17T00:58:47.724Z,984.03
2018-01-17T00:59:47.726Z,984.07
2018-01-17T01:00:47.736Z,984.07
2018-01-17T01:01:47.746Z,984.05
2018-01-17T01:02:47.742Z,984.07
2018-01-17T01:03:47.749Z,984.07
2018-01-17T01:04:47.750Z,984.09
2018-01-17T01:05:47.753Z,984.13
2018-01-17T01:06:48.489Z,984.13
2018-01-17T01:07:47.763Z,984.14
2018-01-17T01:08:47.766Z,984.09
2018-01-17T01:09:47.776Z,984.07
2018-01-17T01:10:47.775Z,984.10
2018-01-17T01:11:47.776Z,984.07
2018-01-17T01:12:47.816Z,984.06
2018-01-17T01:13:47.787Z,984.07
2018-01-17T01:14:47.795Z,984.02
2018-01-17T01:15:47.797Z,984.04
2018-01-17T01:16:47.802Z,984.00
2018-01-17T01:17:47.808Z,984.04
2018-01-17T01:18:47.808Z,983.99
2018-01-17T01:19:47.863Z,984.03
2018-01-17T01:20:47.817Z,984.06
2018-01-17T01:21:47.826Z,984.10
2018-01-17T01:22:47.827Z,984.10
2018-01-17T01:23:47.833Z,984.13
2018-01-17T01:24:47.833Z,984.13
2018-01-17T01:25:47.842Z,984.18
2018-01-17T01:26:47.843Z,984.13
2018-01-17T01:27:47.848Z,984.17
2018-01-17T01:28:47.855Z,984.13
2018-01-17T01:29:47.861Z,984.14
2018-01-17T01:30:47.859Z,984.10
2018-01-17T01:31:47.867Z,984.12
2018-01-17T01:32:47.869Z,984.15
2018-01-17T01:33:47.866Z,984.16
2018-01-17T01:34:47.878Z,984.20
2018-01-17T01:35:47.884Z,984.17
2018-01-17T01:36:47.885Z,984.20
2018-01-17T01:37:47.898Z,984.22
2018-01-17T01:38:47.896Z,984.23
2018-01-17T01:39:47.903Z,984.30
2018-01-17T01:40:47.917Z,984.20
2018-01-17T01:41:47.912Z,984.24
2018-01-17T01:42:47.920Z,984.20
2018-01-17T01:43:47.916Z,984.19
2018-01-17T01:44:47.928Z,984.24
2018-01-17T01:45:47.926Z,984.18
2018-01-17T01:46:47.932Z,984.17
2018-01-17T01:47:47.948Z,984.21
2018-01-17T01:48:47.942Z,984.19
2018-01-17T01:49:47.948Z,984.25
2018-01-17T01:50:47.948Z,984.28
2018-01-17T01:51:47.954Z,984.35
2018-01-17T01:52:47.969Z,984.38
2018-01-17T01:53:47.964Z,984.44
2018-01-17T01:54:47.973Z,984.47
2018-01-17T01:55:47.976Z,984.49
2018-01-17T01:56:47.990Z,984.48
2018-01-17T01:57:47.988Z,984.50
2018-01-17T01:58:47.995Z,984.49
2018-01-17T01:59:47.993Z,984.45
2018-01-17T02:00:48.005Z,984.51
2018-01-17T02:01:48.006Z,984.55
2018-01-17T02:02:48.015Z,984.51
2018-01-17T02:04:48.019Z,984.56
2018-01-17T02:05:48.056Z,984.57
2018-01-17T02:06:48.025Z,984.55
2018-01-17T02:07:48.028Z,984.55
2018-01-17T02:08:48.037Z,984.53
2018-01-17T02:09:48.041Z,984.54
2018-01-17T02:10:48.040Z,984.55
2018-01-17T02:11:48.048Z,984.56
2018-01-17T02:12:48.056Z,984.55
2018-01-17T02:13:48.056Z,984.59
2018-01-17T02:14:48.069Z,984.61
2018-01-17T02:15:48.202Z,984.60
2018-01-17T02:16:48.070Z,984.59
2018-01-17T02:17:48.077Z,984.58
2018-01-17T02:18:48.083Z,984.52
2018-01-17T02:19:48.086Z,984.49
2018-01-17T02:20:48.086Z,984.49
2018-01-17T02:21:48.097Z,984.49
2018-01-17T02:22:48.097Z,984.49
2018-01-17T02:23:48.108Z,984.49
2018-01-17T02:24:48.111Z,984.55
2018-01-17T02:25:48.115Z,984.52
2018-01-17T02:26:48.112Z,984.57
2018-01-17T02:27:48.121Z,984.54
2018-01-17T02:28:48.185Z,984.52
2018-01-17T02:29:48.166Z,984.52
2018-01-17T02:30:48.136Z,984.46
2018-01-17T02:31:48.137Z,984.42
2018-01-17T02:32:48.154Z,984.48
2018-01-17T02:33:48.149Z,984.44
2018-01-17T02:34:48.153Z,984.49
2018-01-17T02:35:48.164Z,984.47
2018-01-17T02:36:48.164Z,984.51
2018-01-17T02:37:48.169Z,984.49
2018-01-17T02:38:48.170Z,984.50
2018-01-17T02:39:48.179Z,984.48
2018-01-17T02:40:48.179Z,984.51
2018-01-17T02:41:48.982Z,984.55
2018-01-17T02:42:48.191Z,984.52
2018-01-17T02:43:48.193Z,984.50
2018-01-17T02:44:48.201Z,984.52
2018-01-17T02:45:48.198Z,984.50
2018-01-17T02:46:48.206Z,984.51
2018-01-17T02:47:48.211Z,984.52
2018-01-17T02:48:48.212Z,984.47
2018-01-17T02:49:48.220Z,984.49
2018-01-17T02:50:48.225Z,984.51
2018-01-17T02:51:48.982Z,984.55
2018-01-17T02:52:48.226Z,984.55
2018-01-17T02:53:48.237Z,984.53
2018-01-17T02:54:48.240Z,984.53
2018-01-17T02:55:48.250Z,984.54
2018-01-17T02:56:48.252Z,984.52
2018-01-17T02:57:48.250Z,984.49
2018-01-17T02:58:48.247Z,984.59
2018-01-17T02:59:48.253Z,984.56
2018-01-17T03:00:48.259Z,984.63
2018-01-17T03:01:48.262Z,984.61
2018-01-17T03:02:48.272Z,984.61
2018-01-17T03:03:48.273Z,984.59
2018-01-17T03:04:48.278Z,984.58
2018-01-17T03:05:48.271Z,984.68
2018-01-17T03:06:48.282Z,984.65
2018-01-17T03:07:48.292Z,984.65
2018-01-17T03:08:48.295Z,984.65
2018-01-17T03:09:48.983Z,984.73
2018-01-17T03:10:48.300Z,984.72
2018-01-17T03:11:48.304Z,984.70
2018-01-17T03:12:48.304Z,984.64
2018-01-17T03:13:48.313Z,984.64
2018-01-17T03:14:48.317Z,984.63
2018-01-17T03:15:48.319Z,984.67
2018-01-17T03:16:48.334Z,984.72
2018-01-17T03:17:48.329Z,984.75
2018-01-17T03:18:48.332Z,984.72
2018-01-17T03:19:48.337Z,984.75
2018-01-17T03:20:48.341Z,984.76
2018-01-17T03:21:48.355Z,984.85
2018-01-17T03:22:48.983Z,984.81
2018-01-17T03:23:48.350Z,984.84
2018-01-17T03:24:48.360Z,984.81
2018-01-17T03:25:48.359Z,984.81
2018-01-17T03:26:48.370Z,984.83
2018-01-17T03:27:48.366Z,984.79
2018-01-17T03:28:48.374Z,984.79
2018-01-17T03:29:48.379Z,984.77
2018-01-17T03:30:48.380Z,984.81
2018-01-17T03:31:48.384Z,984.81
2018-01-17T03:32:48.387Z,984.81
2018-01-17T03:33:48.386Z,984.81
2018-01-17T03:34:48.396Z,984.83
2018-01-17T03:35:48.395Z,984.85
2018-01-17T03:36:48.401Z,984.89
2018-01-17T03:37:48.403Z,984.86
2018-01-17T03:38:48.411Z,984.85
2018-01-17T03:39:48.406Z,984.89
2018-01-17T03:40:48.416Z,984.92
2018-01-17T03:41:48.428Z,984.97
2018-01-17T03:42:48.424Z,985.00
2018-01-17T03:43:48.429Z,985.01
2018-01-17T03:44:48.431Z,985.00
2018-01-17T03:45:48.516Z,984.96
2018-01-17T03:46:48.430Z,984.96
2018-01-17T03:47:48.457Z,984.99
2018-01-17T03:48:48.448Z,985.00
2018-01-17T03:49:48.449Z,985.08
2018-01-17T03:50:48.514Z,985.01
2018-01-17T03:51:48.455Z,984.98
2018-01-17T03:52:48.466Z,985.05
2018-01-17T03:53:48.467Z,985.05
2018-01-17T03:54:48.471Z,985.02
2018-01-17T03:55:48.478Z,985.06
2018-01-17T03:56:48.482Z,985.00
2018-01-17T03:57:48.483Z,985.03
2018-01-17T03:58:48.487Z,985.08
2018-01-17T04:00:48.494Z,985.05
2018-01-17T04:01:48.497Z,985.04
2018-01-17T04:03:48.573Z,985.03
2018-01-17T04:04:48.516Z,985.01
2018-01-17T04:05:48.515Z,985.03
2018-01-17T04:06:48.515Z,984.98
2018-01-17T04:07:48.520Z,985.03
2018-01-17T04:08:48.523Z,984.95
2018-01-17T04:09:48.524Z,984.99
2018-01-17T04:10:48.531Z,984.97
2018-01-17T04:11:48.535Z,985.00
2018-01-17T04:12:48.534Z,985.04
2018-01-17T04:13:48.545Z,985.09
2018-01-17T04:14:48.539Z,985.11
2018-01-17T04:15:48.539Z,985.15
2018-01-17T04:16:48.565Z,985.14
2018-01-17T04:17:48.568Z,985.14
2018-01-17T04:18:48.564Z,985.13
2018-01-17T04:19:48.564Z,985.12
2018-01-17T04:20:48.572Z,985.18
2018-01-17T04:21:48.581Z,985.23
2018-01-17T04:22:48.572Z,985.22
2018-01-17T04:23:48.583Z,985.22
2018-01-17T04:24:48.580Z,985.24
2018-01-17T04:25:48.594Z,985.22
2018-01-17T04:26:48.702Z,985.27
2018-01-17T04:27:48.599Z,985.27
2018-01-17T04:28:48.599Z,985.24
2018-01-17T04:29:48.607Z,985.28
2018-01-17T04:30:48.608Z,985.31
2018-01-17T04:31:48.610Z,985.38
2018-01-17T04:32:48.621Z,985.38
2018-01-17T04:33:48.619Z,985.40
2018-01-17T04:34:48.631Z,985.33
2018-01-17T04:35:48.627Z,985.38
2018-01-17T04:37:48.637Z,985.34
2018-01-17T04:38:48.640Z,985.41
2018-01-17T04:39:48.642Z,985.41
2018-01-17T04:40:48.645Z,985.36
2018-01-17T04:41:48.650Z,985.38
2018-01-17T04:42:48.655Z,985.37
2018-01-17T04:43:48.659Z,985.40
2018-01-17T04:44:48.717Z,985.46
2018-01-17T04:45:48.675Z,985.42
2018-01-17T04:46:48.676Z,985.43
2018-01-17T04:47:48.677Z,985.44
2018-01-17T04:48:48.677Z,985.48
2018-01-17T04:49:48.681Z,985.49
2018-01-17T04:50:48.684Z,985.54
2018-01-17T04:51:48.692Z,985.52
2018-01-17T04:52:48.690Z,985.58
2018-01-17T04:53:48.697Z,985.59
2018-01-17T04:54:48.695Z,985.57
2018-01-17T04:55:48.703Z,985.63
2018-01-17T04:56:48.706Z,985.66
2018-01-17T04:57:48.714Z,985.62
2018-01-17T04:58:48.712Z,985.65
2018-01-17T04:59:48.717Z,985.66
2018-01-17T05:00:48.724Z,985.74
2018-01-17T05:01:48.725Z,985.74
2018-01-17T05:02:48.732Z,985.76
2018-01-17T05:03:48.737Z,985.79
2018-01-17T05:04:48.733Z,985.88
2018-01-17T05:05:48.743Z,985.83
2018-01-17T05:06:48.743Z,985.80
2018-01-17T05:07:48.871Z,985.81
2018-01-17T05:08:48.753Z,985.89
2018-01-17T05:09:48.757Z,985.86
2018-01-17T05:10:48.760Z,985.89
2018-01-17T05:11:48.763Z,985.92
2018-01-17T05:12:48.765Z,985.93
2018-01-17T05:13:48.769Z,985.96
2018-01-17T05:14:48.768Z,985.97
2018-01-17T05:15:48.785Z,985.95
2018-01-17T05:16:48.782Z,985.95
2018-01-17T05:17:48.791Z,986.05
2018-01-17T05:18:48.781Z,986.02
2018-01-17T05:19:48.794Z,986.04
2018-01-17T05:20:48.795Z,986.01
2018-01-17T05:21:48.801Z,985.98
2018-01-17T05:22:48.808Z,986.06
2018-01-17T05:23:48.806Z,986.06
2018-01-17T05:24:48.810Z,986.15
2018-01-17T05:25:48.812Z,986.12
2018-01-17T05:26:48.817Z,986.13
2018-01-17T05:27:48.822Z,986.14
2018-01-17T05:28:48.825Z,986.15
2018-01-17T05:29:48.827Z,986.16
2018-01-17T05:30:48.831Z,986.14
2018-01-17T05:31:48.837Z,986.18
2018-01-17T05:32:48.841Z,986.13
2018-01-17T05:33:48.849Z,986.24
2018-01-17T05:34:48.846Z,986.22
2018-01-17T05:35:48.853Z,986.20
2018-01-17T05:36:48.865Z,986.24
2018-01-17T05:37:48.900Z,986.22
2018-01-17T05:38:48.870Z,986.16
2018-01-17T05:39:48.861Z,986.21
2018-01-17T05:40:48.861Z,986.16
2018-01-17T05:41:48.864Z,986.16
2018-01-17T05:42:48.871Z,986.22
2018-01-17T05:43:48.874Z,986.19
2018-01-17T05:44:48.874Z,986.24
2018-01-17T05:45:48.886Z,986.25
2018-01-17T05:46:48.890Z,986.30
2018-01-17T05:47:48.893Z,986.27
2018-01-17T05:48:48.897Z,986.26
2018-01-17T05:49:48.898Z,986.33
2018-01-17T05:50:48.902Z,986.36
2018-01-17T05:51:48.914Z,986.38
2018-01-17T05:52:48.911Z,986.26
2018-01-17T05:53:48.917Z,986.33
2018-01-17T05:54:48.921Z,986.26
2018-01-17T05:55:48.962Z,986.29
2018-01-17T05:56:48.927Z,986.29
2018-01-17T05:57:48.930Z,986.38
2018-01-17T05:58:48.934Z,986.39
2018-01-17T05:59:48.938Z,986.37
2018-01-17T06:00:48.944Z,986.42
2018-01-17T06:01:48.943Z,986.43
2018-01-17T06:02:48.960Z,986.55
2018-01-17T06:03:48.953Z,986.49
2018-01-17T06:04:49.490Z,986.54
2018-01-17T06:05:48.964Z,986.56
2018-01-17T06:06:48.959Z,986.58
2018-01-17T06:07:48.965Z,986.56
2018-01-17T06:08:48.998Z,986.72
2018-01-17T06:09:48.972Z,986.68
2018-01-17T06:10:48.980Z,986.68
2018-01-17T06:11:48.985Z,986.68
2018-01-17T06:12:48.984Z,986.68
2018-01-17T06:13:48.996Z,986.73
2018-01-17T06:14:48.997Z,986.80
2018-01-17T06:15:49.001Z,986.80
2018-01-17T06:16:49.001Z,986.80
2018-01-17T06:17:49.002Z,986.83
2018-01-17T06:18:49.040Z,986.77
2018-01-17T06:19:48.999Z,986.77
2018-01-17T06:20:49.068Z,986.77
2018-01-17T06:21:49.022Z,986.87
2018-01-17T06:22:49.027Z,986.90
2018-01-17T06:23:49.029Z,986.89
2018-01-17T06:24:49.035Z,986.89
2018-01-17T06:25:49.034Z,986.87
2018-01-17T06:26:49.038Z,986.85
2018-01-17T06:27:49.039Z,986.94
2018-01-17T06:28:49.046Z,986.98
2018-01-17T06:29:49.057Z,986.99
2018-01-17T06:30:49.052Z,986.95
2018-01-17T06:31:49.060Z,987.06
2018-01-17T06:32:49.100Z,987.16
2018-01-17T06:33:49.065Z,987.13
2018-01-17T06:34:49.066Z,987.15
2018-01-17T06:35:49.076Z,987.17
2018-01-17T06:36:49.073Z,987.17
2018-01-17T06:37:49.076Z,987.19
2018-01-17T06:38:49.085Z,987.17
2018-01-17T06:39:49.087Z,987.21
2018-01-17T06:40:49.098Z,987.25
2018-01-17T06:41:49.096Z,987.23
2018-01-17T06:42:49.098Z,987.30
2018-01-17T06:43:49.099Z,987.35
2018-01-17T06:44:49.105Z,987.30
2018-01-17T06:45:49.129Z,987.28
2018-01-17T06:46:49.107Z,987.31
2018-01-17T06:47:49.120Z,987.38
2018-01-17T06:48:49.117Z,987.39
2018-01-17T06:49:49.126Z,987.39
2018-01-17T06:50:49.130Z,987.44
2018-01-17T06:51:49.130Z,987.39
2018-01-17T06:52:49.129Z,987.47
2018-01-17T06:53:49.136Z,987.48
2018-01-17T06:54:49.144Z,987.48
2018-01-17T06:55:49.146Z,987.49
2018-01-17T06:56:49.158Z,987.52
2018-01-17T06:57:49.160Z,987.59
2018-01-17T06:58:49.210Z,987.59
2018-01-17T06:59:49.205Z,987.69
2018-01-17T07:00:49.180Z,987.67
2018-01-17T07:01:49.169Z,987.67
2018-01-17T07:02:49.172Z,987.70
2018-01-17T07:03:49.198Z,987.71
2018-01-17T07:04:49.183Z,987.78
2018-01-17T07:05:49.192Z,987.74
2018-01-17T07:06:49.180Z,987.75
2018-01-17T07:07:49.203Z,987.81
2018-01-17T07:08:49.195Z,987.81
2018-01-17T07:09:49.199Z,987.82
2018-01-17T07:10:49.206Z,987.86
2018-01-17T07:11:49.209Z,987.83
2018-01-17T07:12:49.219Z,988.02
2018-01-17T07:13:49.214Z,987.90
2018-01-17T07:14:49.220Z,987.87
2018-01-17T07:15:49.224Z,988.03
2018-01-17T07:16:49.232Z,988.05
2018-01-17T07:17:49.230Z,988.05
2018-01-17T07:18:49.232Z,988.03
2018-01-17T07:19:49.239Z,988.11
2018-01-17T07:20:49.240Z,988.11
2018-01-17T07:21:49.245Z,988.12
2018-01-17T07:22:49.249Z,988.15
2018-01-17T07:23:49.252Z,988.22
2018-01-17T07:24:49.262Z,988.26
2018-01-17T07:25:49.262Z,988.32
2018-01-17T07:26:49.365Z,988.32
2018-01-17T07:27:49.271Z,988.37
2018-01-17T07:28:49.277Z,988.37
2018-01-17T07:29:49.276Z,988.40
2018-01-17T07:30:49.283Z,988.42
2018-01-17T07:31:49.285Z,988.45
2018-01-17T07:32:49.287Z,988.48
2018-01-17T07:33:49.293Z,988.57
2018-01-17T07:34:49.314Z,988.48
2018-01-17T07:35:49.303Z,988.56
2018-01-17T07:36:49.303Z,988.53
2018-01-17T07:37:49.308Z,988.48
2018-01-17T07:38:49.316Z,988.57
2018-01-17T07:39:49.362Z,988.59
2018-01-17T07:40:49.317Z,988.55
2018-01-17T07:41:49.323Z,988.62
2018-01-17T07:42:49.328Z,988.56
2018-01-17T07:43:49.324Z,988.71
2018-01-17T07:44:49.333Z,988.61
2018-01-17T07:45:49.339Z,988.57
2018-01-17T07:46:49.332Z,988.70
2018-01-17T07:47:49.345Z,988.69
2018-01-17T07:48:49.345Z,988.78
2018-01-17T07:49:49.363Z,988.85
2018-01-17T07:50:49.356Z,988.85
2018-01-17T07:51:49.362Z,988.85
2018-01-17T07:52:49.368Z,988.87
2018-01-17T07:53:49.372Z,988.91
2018-01-17T07:54:49.365Z,988.95
2018-01-17T07:55:49.372Z,988.98
2018-01-17T07:56:49.386Z,989.03
2018-01-17T07:57:49.386Z,989.10
2018-01-17T07:58:49.391Z,989.13
2018-01-17T07:59:49.394Z,989.12
2018-01-17T08:00:49.396Z,989.14
2018-01-17T08:01:49.404Z,989.17
2018-01-17T08:02:49.401Z,989.10
2018-01-17T08:03:49.415Z,989.15
2018-01-17T08:04:49.412Z,989.19
2018-01-17T08:05:49.411Z,989.22
2018-01-17T08:06:49.417Z,989.32
2018-01-17T08:08:49.425Z,989.39
2018-01-17T08:09:49.440Z,989.38
2018-01-17T08:10:49.431Z,989.35
2018-01-17T08:11:49.440Z,989.36
2018-01-17T08:12:49.442Z,989.38
2018-01-17T08:13:49.444Z,989.17
2018-01-17T08:14:49.507Z,989.42
2018-01-17T08:15:49.455Z,989.42
2018-01-17T08:16:49.457Z,989.47
2018-01-17T08:17:49.453Z,989.47
2018-01-17T08:18:49.460Z,989.51
2018-01-17T08:19:49.471Z,989.49
2018-01-17T08:20:49.497Z,989.49
2018-01-17T08:21:49.478Z,989.50
2018-01-17T08:22:49.479Z,989.49
2018-01-17T08:23:49.497Z,989.56
2018-01-17T08:24:49.500Z,989.67
2018-01-17T08:25:49.500Z,989.73
2018-01-17T08:26:49.495Z,989.71
2018-01-17T08:27:49.498Z,989.69
2018-01-17T08:28:49.512Z,989.70
2018-01-17T08:29:49.518Z,989.70
2018-01-17T08:30:49.596Z,989.75
2018-01-17T08:31:49.512Z,989.80
2018-01-17T08:32:49.519Z,989.79
2018-01-17T08:33:49.518Z,989.85
2018-01-17T08:35:49.532Z,989.96
2018-01-17T08:36:49.517Z,989.93
2018-01-17T08:37:49.530Z,990.01
2018-01-17T08:38:49.542Z,990.07
2018-01-17T08:39:49.538Z,990.13
2018-01-17T08:40:49.545Z,990.10
2018-01-17T08:41:49.553Z,990.09
2018-01-17T08:42:49.552Z,990.09
2018-01-17T08:43:49.560Z,990.08
2018-01-17T08:44:49.561Z,990.06
2018-01-17T08:45:49.558Z,990.03
2018-01-17T08:47:49.568Z,990.14
2018-01-17T08:48:49.600Z,990.17
2018-01-17T08:49:49.568Z,990.14
2018-01-17T08:50:49.574Z,990.10
2018-01-17T08:51:49.577Z,990.11
2018-01-17T08:52:49.585Z,990.15
2018-01-17T08:53:49.600Z,990.13
2018-01-17T08:54:49.592Z,990.16
2018-01-17T08:55:49.589Z,990.21
2018-01-17T08:56:49.603Z,990.18
2018-01-17T08:57:49.606Z,990.15
2018-01-17T08:58:49.595Z,990.15
2018-01-17T08:59:49.610Z,990.23
2018-01-17T09:00:49.629Z,990.24
2018-01-17T09:01:49.614Z,990.30
2018-01-17T09:02:49.623Z,990.34
2018-01-17T09:03:49.629Z,990.38
2018-01-17T09:04:49.628Z,990.39
2018-01-17T09:06:49.632Z,990.45
2018-01-17T09:07:49.637Z,990.45
2018-01-17T09:08:49.634Z,990.50
2018-01-17T09:09:49.649Z,990.48
2018-01-17T09:10:49.652Z,990.46
2018-01-17T09:11:49.652Z,990.49
2018-01-17T09:12:49.675Z,990.51
2018-01-17T09:13:49.658Z,990.51
2018-01-17T09:14:49.670Z,990.55
2018-01-17T09:15:49.670Z,990.60
2018-01-17T09:16:49.671Z,990.63
2018-01-17T09:17:49.686Z,990.63
2018-01-17T09:18:49.679Z,990.65
2018-01-17T09:19:49.684Z,990.60
2018-01-17T09:20:49.689Z,990.67
2018-01-17T09:21:49.707Z,990.66
2018-01-17T09:22:49.692Z,990.59
2018-01-17T09:23:49.698Z,990.67
2018-01-17T09:24:50.491Z,990.55
2018-01-17T09:25:49.705Z,990.66
2018-01-17T09:26:49.703Z,990.62
2018-01-17T09:27:49.715Z,990.69
2018-01-17T09:28:49.715Z,990.72
2018-01-17T09:29:49.726Z,990.78
2018-01-17T09:30:49.726Z,990.72
2018-01-17T09:31:49.726Z,990.71
2018-01-17T09:32:49.727Z,990.80
2018-01-17T09:33:49.734Z,990.78
2018-01-17T09:34:49.738Z,990.82
2018-01-17T09:35:49.740Z,990.83
2018-01-17T09:36:49.757Z,990.91
2018-01-17T09:37:49.755Z,990.90
2018-01-17T09:38:49.959Z,990.92
2018-01-17T09:39:49.758Z,990.93
2018-01-17T09:40:49.781Z,991.02
2018-01-17T09:41:49.757Z,990.94
2018-01-17T09:42:49.772Z,990.99
2018-01-17T09:43:49.770Z,991.05
2018-01-17T09:44:49.780Z,991.06
2018-01-17T09:45:49.849Z,991.02
2018-01-17T09:46:49.787Z,991.14
2018-01-17T09:47:49.789Z,991.10
2018-01-17T09:48:49.795Z,991.04
2018-01-17T09:49:49.799Z,991.05
2018-01-17T09:50:49.799Z,991.11
2018-01-17T09:51:49.808Z,991.09
2018-01-17T09:52:49.949Z,991.14
2018-01-17T09:53:49.814Z,991.22
2018-01-17T09:54:49.821Z,991.24
2018-01-17T09:55:49.830Z,991.25
2018-01-17T09:56:49.827Z,991.23
2018-01-17T09:57:49.831Z,991.28
2018-01-17T09:58:49.841Z,991.33
2018-01-17T09:59:49.840Z,991.31
2018-01-17T10:00:49.844Z,991.35
2018-01-17T10:01:49.888Z,991.37
2018-01-17T10:02:49.872Z,991.44
2018-01-17T10:03:49.859Z,991.42
2018-01-17T10:04:49.858Z,991.49
2018-01-17T10:05:49.901Z,991.45
2018-01-17T10:06:49.878Z,991.44
2018-01-17T10:07:49.880Z,991.49
2018-01-17T10:08:49.883Z,991.52
2018-01-17T10:09:49.883Z,991.52
2018-01-17T10:10:49.891Z,991.54
2018-01-17T10:11:49.898Z,991.53
2018-01-17T10:12:49.904Z,991.59
2018-01-17T10:13:49.909Z,991.56
2018-01-17T10:14:49.952Z,991.54
2018-01-17T10:15:49.904Z,991.48
2018-01-17T10:16:49.925Z,991.58
2018-01-17T10:17:49.921Z,991.61
2018-01-17T10:18:49.933Z,991.60
2018-01-17T10:19:49.935Z,991.64
2018-01-17T10:20:49.940Z,991.58
2018-01-17T10:21:49.948Z,991.61
2018-01-17T10:22:49.952Z,991.62
2018-01-17T10:23:49.953Z,991.62
2018-01-17T10:24:49.967Z,991.66
2018-01-17T10:25:49.965Z,991.68
2018-01-17T10:26:50.085Z,991.72
2018-01-17T10:27:50.022Z,991.64
2018-01-17T10:28:50.019Z,991.78
2018-01-17T10:29:49.981Z,991.74
2018-01-17T10:30:49.984Z,991.85
2018-01-17T10:31:50.002Z,991.76
2018-01-17T10:32:50.011Z,991.76
2018-01-17T10:33:50.085Z,991.79
2018-01-17T10:34:50.011Z,991.76
2018-01-17T10:35:50.015Z,991.79
2018-01-17T10:36:50.021Z,991.83
2018-01-17T10:37:50.026Z,991.84
2018-01-17T10:38:50.018Z,991.78
2018-01-17T10:39:50.032Z,991.77
2018-01-17T10:40:50.040Z,991.82
2018-01-17T10:41:50.056Z,991.72
2018-01-17T10:42:50.047Z,991.84
2018-01-17T10:43:50.050Z,991.79
2018-01-17T10:44:50.058Z,991.79
2018-01-17T10:45:50.066Z,991.81
2018-01-17T10:46:50.070Z,991.72
2018-01-17T10:47:50.076Z,991.79
2018-01-17T10:48:50.088Z,991.80
2018-01-17T10:49:50.092Z,991.81
2018-01-17T10:50:50.089Z,991.84
2018-01-17T10:51:50.093Z,991.90
2018-01-17T10:52:50.112Z,991.87
2018-01-17T10:53:50.126Z,991.84
2018-01-17T10:54:50.112Z,991.78
2018-01-17T10:55:50.149Z,991.91
2018-01-17T10:56:50.268Z,991.90
2018-01-17T10:57:50.131Z,991.72
2018-01-17T10:58:50.134Z,991.83
2018-01-17T10:59:50.141Z,991.84
2018-01-17T11:00:50.145Z,991.87
2018-01-17T11:01:50.149Z,991.82
2018-01-17T11:02:50.155Z,991.89
2018-01-17T11:03:50.172Z,991.85
2018-01-17T11:04:50.179Z,991.80
2018-01-17T11:05:50.182Z,991.91
2018-01-17T11:06:50.181Z,991.90
2018-01-17T11:07:50.184Z,991.89
2018-01-17T11:08:50.189Z,992.02
2018-01-17T11:09:50.222Z,991.97
2018-01-17T11:10:50.211Z,991.99
2018-01-17T11:11:50.211Z,992.02
2018-01-17T11:12:50.221Z,992.08
2018-01-17T11:13:50.216Z,991.98
2018-01-17T11:14:50.227Z,992.02
2018-01-17T11:15:50.239Z,991.94
2018-01-17T11:16:50.239Z,991.93
2018-01-17T11:17:50.250Z,992.03
2018-01-17T11:18:50.258Z,991.98
2018-01-17T11:19:50.259Z,991.93
2018-01-17T11:20:50.262Z,992.00
2018-01-17T11:21:50.278Z,991.98
2018-01-17T11:22:50.274Z,992.00
2018-01-17T11:23:50.278Z,991.94
2018-01-17T11:24:50.294Z,991.95
2018-01-17T11:25:50.284Z,991.95
2018-01-17T11:26:50.305Z,991.99
2018-01-17T11:27:50.290Z,992.02
2018-01-17T11:28:50.301Z,992.03
2018-01-17T11:29:50.306Z,992.06
2018-01-17T11:30:50.512Z,992.03
2018-01-17T11:31:51.335Z,991.97
2018-01-17T11:32:50.748Z,992.01
2018-01-17T11:33:50.358Z,992.01
2018-01-17T11:34:50.352Z,992.04
2018-01-17T11:35:50.586Z,992.05
2018-01-17T11:36:50.347Z,992.14
2018-01-17T11:37:50.379Z,992.15
2018-01-17T11:38:50.382Z,992.05
2018-01-17T11:39:50.418Z,992.03
2018-01-17T11:40:50.389Z,992.04
2018-01-17T11:41:50.371Z,991.97
2018-01-17T11:42:50.390Z,992.08
2018-01-17T11:43:50.365Z,991.99
2018-01-17T11:44:50.377Z,992.04
2018-01-17T11:45:50.387Z,992.04
2018-01-17T11:46:50.391Z,992.06
2018-01-17T11:47:50.400Z,992.00
2018-01-17T11:48:50.400Z,991.96
2018-01-17T11:49:50.402Z,991.96
2018-01-17T11:50:50.409Z,992.01
2018-01-17T11:51:50.445Z,991.92
2018-01-17T11:52:50.417Z,991.97
2018-01-17T11:53:50.421Z,991.89
2018-01-17T11:54:50.427Z,991.92
2018-01-17T11:55:50.462Z,991.81
2018-01-17T11:56:50.434Z,991.87
2018-01-17T11:57:50.435Z,991.92
2018-01-17T11:58:50.439Z,991.96
2018-01-17T11:59:50.529Z,991.91
2018-01-17T12:00:50.480Z,991.84
2018-01-17T12:01:50.622Z,991.98
2018-01-17T12:02:50.491Z,991.92
2018-01-17T12:03:50.476Z,991.86
2018-01-17T12:04:50.635Z,991.88
2018-01-17T12:05:50.479Z,991.89
2018-01-17T12:06:50.485Z,991.93
2018-01-17T12:07:50.489Z,991.94
2018-01-17T12:08:50.496Z,991.93
2018-01-17T12:09:50.497Z,991.89
2018-01-17T12:10:50.592Z,991.90
2018-01-17T12:11:50.509Z,991.93
2018-01-17T12:12:50.513Z,991.89
2018-01-17T12:13:50.518Z,991.88
2018-01-17T12:14:50.545Z,991.93
2018-01-17T12:15:50.596Z,991.89
2018-01-17T12:16:50.531Z,991.83
2018-01-17T12:17:50.534Z,991.86
2018-01-17T12:18:50.538Z,991.87
2018-01-17T12:19:50.549Z,991.88
2018-01-17T12:20:50.550Z,991.93
2018-01-17T12:21:50.556Z,991.91
2018-01-17T12:22:50.562Z,991.85
2018-01-17T12:23:50.564Z,991.89
2018-01-17T12:24:50.564Z,992.01
2018-01-17T12:25:50.584Z,991.98
2018-01-17T12:26:50.574Z,992.02
2018-01-17T12:27:50.582Z,991.97
2018-01-17T12:28:50.596Z,991.94
2018-01-17T12:29:50.589Z,991.88
2018-01-17T12:30:50.591Z,991.89
2018-01-17T12:31:50.594Z,991.87
2018-01-17T12:32:50.603Z,991.77
2018-01-17T12:33:50.606Z,991.71
2018-01-17T12:34:50.615Z,991.68
2018-01-17T12:35:50.623Z,991.70
2018-01-17T12:36:50.622Z,991.74
2018-01-17T12:37:50.620Z,991.63
2018-01-17T12:38:50.624Z,991.59
2018-01-17T12:39:50.631Z,991.64
2018-01-17T12:40:50.631Z,991.61
2018-01-17T12:41:50.668Z,991.65
2018-01-17T12:42:50.644Z,991.61